Eureka, Louisiana
Current Conditions -  °F | °C
As of 5:15 PM on Friday 31 Oct 2014 (Local Time) from KRSN Reporting Station
Scattered Clouds Scattered Clouds  
Wind Chill: 64°   Ceiling: Unl
Heat Index: 64°   Visibility: 10mi
Dew Point: 46°   Wind: 6mph
Humidity: 52%   Direction: 350°N
Pressure: 30.22"   Gusts: NA
Location:  32.6533°N, 92.3683°W
Report Text: KRSN 312215Z AUTO 35005KT 10SM SCT050 18/08 A3022 RMK AO2 T01750076
Loading
Personal Weather Stations






























Interactive Weather Map
Tropical Storm Tracking
New forecast layout! Learn more

10-Day Weather Forecast

Advertisements
Track Severe Weather on mobile